sensor_id;sensor_type;location;lat;lon;timestamp;P1;durP1;ratioP1;P2;durP2;ratioP2
5807;SDS011;2930;42.678;23.312;2023-04-06T00:01:31;0.97;;;0.97;;
5807;SDS011;2930;42.678;23.312;2023-04-06T00:03:57;0.60;;;0.60;;
5807;SDS011;2930;42.678;23.312;2023-04-06T00:06:23;0.70;;;0.70;;
5807;SDS011;2930;42.678;23.312;2023-04-06T00:08:48;0.60;;;0.60;;
5807;SDS011;2930;42.678;23.312;2023-04-06T00:11:14;3.10;;;1.00;;
5807;SDS011;2930;42.678;23.312;2023-04-06T00:13:41;0.40;;;0.40;;
5807;SDS011;2930;42.678;23.312;2023-04-06T00:16:07;0.47;;;0.47;;
5807;SDS011;2930;42.678;23.312;2023-04-06T00:18:33;0.83;;;0.83;;
5807;SDS011;2930;42.678;23.312;2023-04-06T00:20:58;0.90;;;0.57;;
5807;SDS011;2930;42.678;23.312;2023-04-06T00:23:24;1.00;;;1.00;;
5807;SDS011;2930;42.678;23.312;2023-04-06T00:25:50;0.77;;;0.77;;
5807;SDS011;2930;42.678;23.312;2023-04-06T00:28:16;0.60;;;0.60;;
5807;SDS011;2930;42.678;23.312;2023-04-06T00:30:42;1.23;;;0.73;;
5807;SDS011;2930;42.678;23.312;2023-04-06T00:33:08;0.47;;;0.47;;
5807;SDS011;2930;42.678;23.312;2023-04-06T00:35:33;0.53;;;0.40;;
5807;SDS011;2930;42.678;23.312;2023-04-06T00:37:59;0.57;;;0.57;;
5807;SDS011;2930;42.678;23.312;2023-04-06T00:40:25;0.70;;;0.70;;
5807;SDS011;2930;42.678;23.312;2023-04-06T00:42:53;0.40;;;0.40;;
5807;SDS011;2930;42.678;23.312;2023-04-06T00:45:19;0.37;;;0.37;;
5807;SDS011;2930;42.678;23.312;2023-04-06T00:47:45;0.80;;;0.73;;
5807;SDS011;2930;42.678;23.312;2023-04-06T00:50:11;1.03;;;1.03;;
5807;SDS011;2930;42.678;23.312;2023-04-06T00:52:36;0.63;;;0.63;;
5807;SDS011;2930;42.678;23.312;2023-04-06T00:55:03;2.67;;;0.70;;
5807;SDS011;2930;42.678;23.312;2023-04-06T00:57:29;0.43;;;0.43;;
5807;SDS011;2930;42.678;23.312;2023-04-06T00:59:55;0.97;;;0.73;;
5807;SDS011;2930;42.678;23.312;2023-04-06T01:02:21;0.40;;;0.40;;
5807;SDS011;2930;42.678;23.312;2023-04-06T01:04:48;0.63;;;0.63;;
5807;SDS011;2930;42.678;23.312;2023-04-06T01:07:14;0.40;;;0.40;;
5807;SDS011;2930;42.678;23.312;2023-04-06T01:09:39;1.03;;;0.80;;
5807;SDS011;2930;42.678;23.312;2023-04-06T01:12:06;0.50;;;0.50;;
5807;SDS011;2930;42.678;23.312;2023-04-06T01:14:32;0.53;;;0.53;;
5807;SDS011;2930;42.678;23.312;2023-04-06T01:16:58;0.70;;;0.70;;
5807;SDS011;2930;42.678;23.312;2023-04-06T01:19:27;1.70;;;0.87;;
5807;SDS011;2930;42.678;23.312;2023-04-06T01:21:53;0.70;;;0.70;;
5807;SDS011;2930;42.678;23.312;2023-04-06T01:24:20;0.67;;;0.67;;
5807;SDS011;2930;42.678;23.312;2023-04-06T01:26:46;0.60;;;0.60;;
5807;SDS011;2930;42.678;23.312;2023-04-06T01:29:11;0.40;;;0.40;;
5807;SDS011;2930;42.678;23.312;2023-04-06T01:31:38;0.70;;;0.70;;
5807;SDS011;2930;42.678;23.312;2023-04-06T01:34:04;0.37;;;0.37;;
5807;SDS011;2930;42.678;23.312;2023-04-06T01:36:31;1.23;;;0.43;;
5807;SDS011;2930;42.678;23.312;2023-04-06T01:38:56;0.60;;;0.60;;
5807;SDS011;2930;42.678;23.312;2023-04-06T01:41:22;1.93;;;0.90;;
5807;SDS011;2930;42.678;23.312;2023-04-06T01:43:48;0.50;;;0.50;;
5807;SDS011;2930;42.678;23.312;2023-04-06T01:46:14;0.37;;;0.37;;
5807;SDS011;2930;42.678;23.312;2023-04-06T01:48:41;0.33;;;0.33;;
5807;SDS011;2930;42.678;23.312;2023-04-06T01:51:07;0.60;;;0.60;;
5807;SDS011;2930;42.678;23.312;2023-04-06T01:53:33;0.60;;;0.60;;
5807;SDS011;2930;42.678;23.312;2023-04-06T01:55:58;0.57;;;0.57;;
5807;SDS011;2930;42.678;23.312;2023-04-06T01:58:24;0.60;;;0.60;;
5807;SDS011;2930;42.678;23.312;2023-04-06T02:00:50;0.70;;;0.70;;
5807;SDS011;2930;42.678;23.312;2023-04-06T02:03:16;1.63;;;0.70;;
5807;SDS011;2930;42.678;23.312;2023-04-06T02:05:41;0.67;;;0.50;;
5807;SDS011;2930;42.678;23.312;2023-04-06T02:08:07;0.47;;;0.47;;
5807;SDS011;2930;42.678;23.312;2023-04-06T02:10:33;0.60;;;0.60;;
5807;SDS011;2930;42.678;23.312;2023-04-06T02:13:00;0.40;;;0.40;;
5807;SDS011;2930;42.678;23.312;2023-04-06T02:15:26;0.30;;;0.30;;
5807;SDS011;2930;42.678;23.312;2023-04-06T02:17:52;0.50;;;0.50;;
5807;SDS011;2930;42.678;23.312;2023-04-06T02:20:18;1.53;;;1.23;;
5807;SDS011;2930;42.678;23.312;2023-04-06T02:22:44;0.67;;;0.67;;
5807;SDS011;2930;42.678;23.312;2023-04-06T02:25:09;0.50;;;0.50;;
5807;SDS011;2930;42.678;23.312;2023-04-06T02:27:35;0.50;;;0.40;;
5807;SDS011;2930;42.678;23.312;2023-04-06T02:30:04;0.53;;;0.50;;
5807;SDS011;2930;42.678;23.312;2023-04-06T02:32:30;0.47;;;0.47;;
5807;SDS011;2930;42.678;23.312;2023-04-06T02:34:56;0.60;;;0.60;;
5807;SDS011;2930;42.678;23.312;2023-04-06T02:37:22;0.80;;;0.80;;
5807;SDS011;2930;42.678;23.312;2023-04-06T02:39:49;0.53;;;0.53;;
5807;SDS011;2930;42.678;23.312;2023-04-06T02:42:15;0.50;;;0.43;;
5807;SDS011;2930;42.678;23.312;2023-04-06T02:44:41;0.43;;;0.43;;
5807;SDS011;2930;42.678;23.312;2023-04-06T02:47:10;1.73;;;0.50;;
5807;SDS011;2930;42.678;23.312;2023-04-06T02:49:36;0.63;;;0.50;;
5807;SDS011;2930;42.678;23.312;2023-04-06T02:52:01;0.40;;;0.40;;
5807;SDS011;2930;42.678;23.312;2023-04-06T02:54:28;0.80;;;0.50;;
5807;SDS011;2930;42.678;23.312;2023-04-06T02:56:53;0.50;;;0.50;;
5807;SDS011;2930;42.678;23.312;2023-04-06T02:59:19;0.50;;;0.50;;
5807;SDS011;2930;42.678;23.312;2023-04-06T03:01:45;0.50;;;0.50;;
5807;SDS011;2930;42.678;23.312;2023-04-06T03:04:11;0.77;;;0.77;;
5807;SDS011;2930;42.678;23.312;2023-04-06T03:06:36;0.73;;;0.60;;
5807;SDS011;2930;42.678;23.312;2023-04-06T03:09:02;0.90;;;0.90;;
5807;SDS011;2930;42.678;23.312;2023-04-06T03:11:28;0.50;;;0.50;;
5807;SDS011;2930;42.678;23.312;2023-04-06T03:13:54;0.70;;;0.70;;
5807;SDS011;2930;42.678;23.312;2023-04-06T03:16:20;1.43;;;1.00;;
5807;SDS011;2930;42.678;23.312;2023-04-06T03:18:46;0.60;;;0.53;;
5807;SDS011;2930;42.678;23.312;2023-04-06T03:21:12;0.77;;;0.70;;
5807;SDS011;2930;42.678;23.312;2023-04-06T03:23:40;1.07;;;0.60;;
5807;SDS011;2930;42.678;23.312;2023-04-06T03:26:06;0.37;;;0.37;;
5807;SDS011;2930;42.678;23.312;2023-04-06T03:28:32;1.00;;;0.73;;
5807;SDS011;2930;42.678;23.312;2023-04-06T03:30:57;0.40;;;0.40;;
5807;SDS011;2930;42.678;23.312;2023-04-06T03:33:23;0.57;;;0.57;;
5807;SDS011;2930;42.678;23.312;2023-04-06T03:35:52;0.80;;;0.80;;
5807;SDS011;2930;42.678;23.312;2023-04-06T03:38:18;0.30;;;0.30;;
5807;SDS011;2930;42.678;23.312;2023-04-06T03:40:44;0.70;;;0.70;;
5807;SDS011;2930;42.678;23.312;2023-04-06T03:43:10;0.80;;;0.80;;
5807;SDS011;2930;42.678;23.312;2023-04-06T03:45:36;0.63;;;0.63;;
5807;SDS011;2930;42.678;23.312;2023-04-06T03:48:03;0.63;;;0.63;;
5807;SDS011;2930;42.678;23.312;2023-04-06T03:50:29;1.00;;;0.70;;
5807;SDS011;2930;42.678;23.312;2023-04-06T03:52:55;0.70;;;0.70;;
5807;SDS011;2930;42.678;23.312;2023-04-06T03:55:21;0.50;;;0.50;;
5807;SDS011;2930;42.678;23.312;2023-04-06T03:57:46;0.80;;;0.60;;
5807;SDS011;2930;42.678;23.312;2023-04-06T04:00:12;0.70;;;0.70;;
5807;SDS011;2930;42.678;23.312;2023-04-06T04:02:38;0.70;;;0.70;;
5807;SDS011;2930;42.678;23.312;2023-04-06T04:05:04;0.50;;;0.47;;
5807;SDS011;2930;42.678;23.312;2023-04-06T04:07:30;0.90;;;0.90;;
5807;SDS011;2930;42.678;23.312;2023-04-06T04:09:56;0.53;;;0.53;;
5807;SDS011;2930;42.678;23.312;2023-04-06T04:12:21;0.60;;;0.60;;
5807;SDS011;2930;42.678;23.312;2023-04-06T04:14:47;1.17;;;0.53;;
5807;SDS011;2930;42.678;23.312;2023-04-06T04:17:13;0.63;;;0.63;;
5807;SDS011;2930;42.678;23.312;2023-04-06T04:19:38;0.60;;;0.60;;
5807;SDS011;2930;42.678;23.312;2023-04-06T04:22:04;0.60;;;0.60;;
5807;SDS011;2930;42.678;23.312;2023-04-06T04:24:31;0.40;;;0.40;;
5807;SDS011;2930;42.678;23.312;2023-04-06T04:26:57;1.03;;;0.73;;
5807;SDS011;2930;42.678;23.312;2023-04-06T04:29:23;0.83;;;0.83;;
5807;SDS011;2930;42.678;23.312;2023-04-06T04:31:49;0.50;;;0.50;;
5807;SDS011;2930;42.678;23.312;2023-04-06T04:34:15;1.20;;;0.53;;
5807;SDS011;2930;42.678;23.312;2023-04-06T04:36:41;1.03;;;0.80;;
5807;SDS011;2930;42.678;23.312;2023-04-06T04:39:07;0.73;;;0.73;;
5807;SDS011;2930;42.678;23.312;2023-04-06T04:41:33;0.70;;;0.70;;
5807;SDS011;2930;42.678;23.312;2023-04-06T04:43:58;0.70;;;0.70;;
5807;SDS011;2930;42.678;23.312;2023-04-06T04:46:24;1.03;;;0.93;;
5807;SDS011;2930;42.678;23.312;2023-04-06T04:48:50;0.37;;;0.37;;
5807;SDS011;2930;42.678;23.312;2023-04-06T04:51:15;0.77;;;0.77;;
5807;SDS011;2930;42.678;23.312;2023-04-06T04:53:41;0.40;;;0.40;;
5807;SDS011;2930;42.678;23.312;2023-04-06T04:56:07;1.10;;;1.10;;
5807;SDS011;2930;42.678;23.312;2023-04-06T04:58:32;0.57;;;0.57;;
5807;SDS011;2930;42.678;23.312;2023-04-06T05:00:58;0.50;;;0.50;;
5807;SDS011;2930;42.678;23.312;2023-04-06T05:03:24;0.40;;;0.40;;
5807;SDS011;2930;42.678;23.312;2023-04-06T05:05:51;2.78;;;2.58;;
5807;SDS011;2930;42.678;23.312;2023-04-06T05:08:17;1.10;;;1.10;;
5807;SDS011;2930;42.678;23.312;2023-04-06T05:10:43;0.70;;;0.70;;
5807;SDS011;2930;42.678;23.312;2023-04-06T05:13:10;1.20;;;1.03;;
5807;SDS011;2930;42.678;23.312;2023-04-06T05:15:36;1.57;;;0.70;;
5807;SDS011;2930;42.678;23.312;2023-04-06T05:18:05;0.80;;;0.80;;
5807;SDS011;2930;42.678;23.312;2023-04-06T05:20:35;1.00;;;1.00;;
5807;SDS011;2930;42.678;23.312;2023-04-06T05:23:01;0.67;;;0.67;;
5807;SDS011;2930;42.678;23.312;2023-04-06T05:25:27;0.80;;;0.80;;
5807;SDS011;2930;42.678;23.312;2023-04-06T05:27:52;1.60;;;1.03;;
5807;SDS011;2930;42.678;23.312;2023-04-06T05:30:18;4.30;;;1.27;;
5807;SDS011;2930;42.678;23.312;2023-04-06T05:32:45;3.03;;;0.90;;
5807;SDS011;2930;42.678;23.312;2023-04-06T05:35:11;1.00;;;0.73;;
5807;SDS011;2930;42.678;23.312;2023-04-06T05:37:37;0.90;;;0.90;;
5807;SDS011;2930;42.678;23.312;2023-04-06T05:40:03;2.53;;;1.10;;
5807;SDS011;2930;42.678;23.312;2023-04-06T05:42:39;0.90;;;0.90;;
5807;SDS011;2930;42.678;23.312;2023-04-06T05:45:09;1.50;;;1.20;;
5807;SDS011;2930;42.678;23.312;2023-04-06T05:47:36;2.50;;;1.20;;
5807;SDS011;2930;42.678;23.312;2023-04-06T05:50:02;1.03;;;1.03;;
5807;SDS011;2930;42.678;23.312;2023-04-06T05:52:28;1.50;;;1.27;;
5807;SDS011;2930;42.678;23.312;2023-04-06T05:54:54;1.43;;;1.20;;
5807;SDS011;2930;42.678;23.312;2023-04-06T05:57:19;1.43;;;1.17;;
5807;SDS011;2930;42.678;23.312;2023-04-06T05:59:45;1.57;;;1.13;;
5807;SDS011;2930;42.678;23.312;2023-04-06T06:02:11;0.97;;;0.97;;
5807;SDS011;2930;42.678;23.312;2023-04-06T06:04:36;1.40;;;1.40;;
5807;SDS011;2930;42.678;23.312;2023-04-06T06:07:02;1.63;;;1.03;;
5807;SDS011;2930;42.678;23.312;2023-04-06T06:09:28;1.00;;;1.00;;
5807;SDS011;2930;42.678;23.312;2023-04-06T06:11:54;1.00;;;1.00;;
5807;SDS011;2930;42.678;23.312;2023-04-06T06:14:19;2.20;;;1.20;;
5807;SDS011;2930;42.678;23.312;2023-04-06T06:16:46;1.73;;;1.03;;
5807;SDS011;2930;42.678;23.312;2023-04-06T06:19:12;2.13;;;1.40;;
5807;SDS011;2930;42.678;23.312;2023-04-06T06:21:38;1.23;;;0.93;;
5807;SDS011;2930;42.678;23.312;2023-04-06T06:24:04;1.97;;;1.40;;
5807;SDS011;2930;42.678;23.312;2023-04-06T06:26:30;1.60;;;1.47;;
5807;SDS011;2930;42.678;23.312;2023-04-06T06:28:56;1.27;;;1.20;;
5807;SDS011;2930;42.678;23.312;2023-04-06T06:31:22;1.13;;;1.07;;
5807;SDS011;2930;42.678;23.312;2023-04-06T06:33:50;1.70;;;1.50;;
5807;SDS011;2930;42.678;23.312;2023-04-06T06:36:19;2.00;;;1.53;;
5807;SDS011;2930;42.678;23.312;2023-04-06T06:38:45;3.17;;;1.40;;
5807;SDS011;2930;42.678;23.312;2023-04-06T06:41:10;1.60;;;1.50;;
5807;SDS011;2930;42.678;23.312;2023-04-06T06:43:36;1.67;;;1.57;;
5807;SDS011;2930;42.678;23.312;2023-04-06T06:46:03;1.73;;;1.63;;
5807;SDS011;2930;42.678;23.312;2023-04-06T06:48:29;1.70;;;1.60;;
5807;SDS011;2930;42.678;23.312;2023-04-06T06:50:55;1.97;;;1.90;;
5807;SDS011;2930;42.678;23.312;2023-04-06T06:53:21;1.83;;;1.70;;
5807;SDS011;2930;42.678;23.312;2023-04-06T06:55:48;1.77;;;1.63;;
5807;SDS011;2930;42.678;23.312;2023-04-06T06:58:17;2.03;;;1.40;;
5807;SDS011;2930;42.678;23.312;2023-04-06T07:00:44;1.50;;;1.50;;
5807;SDS011;2930;42.678;23.312;2023-04-06T07:03:10;1.90;;;1.67;;
5807;SDS011;2930;42.678;23.312;2023-04-06T07:05:36;2.67;;;2.20;;
5807;SDS011;2930;42.678;23.312;2023-04-06T07:08:02;2.33;;;1.77;;
5807;SDS011;2930;42.678;23.312;2023-04-06T07:10:28;2.10;;;2.00;;
5807;SDS011;2930;42.678;23.312;2023-04-06T07:12:54;1.93;;;1.67;;
5807;SDS011;2930;42.678;23.312;2023-04-06T07:15:19;1.70;;;1.60;;
5807;SDS011;2930;42.678;23.312;2023-04-06T07:17:45;2.57;;;2.37;;
5807;SDS011;2930;42.678;23.312;2023-04-06T07:20:11;1.97;;;1.80;;
5807;SDS011;2930;42.678;23.312;2023-04-06T07:22:38;1.87;;;1.77;;
5807;SDS011;2930;42.678;23.312;2023-04-06T07:25:04;1.97;;;1.87;;
5807;SDS011;2930;42.678;23.312;2023-04-06T07:27:30;2.43;;;2.23;;
5807;SDS011;2930;42.678;23.312;2023-04-06T07:29:55;1.67;;;1.57;;
5807;SDS011;2930;42.678;23.312;2023-04-06T07:32:21;2.07;;;1.87;;
5807;SDS011;2930;42.678;23.312;2023-04-06T07:34:47;2.17;;;2.03;;
5807;SDS011;2930;42.678;23.312;2023-04-06T07:37:12;2.00;;;1.57;;
5807;SDS011;2930;42.678;23.312;2023-04-06T07:39:38;2.30;;;2.00;;
5807;SDS011;2930;42.678;23.312;2023-04-06T07:42:05;2.27;;;2.07;;
5807;SDS011;2930;42.678;23.312;2023-04-06T07:44:31;1.73;;;1.60;;
5807;SDS011;2930;42.678;23.312;2023-04-06T07:46:56;2.07;;;1.83;;
5807;SDS011;2930;42.678;23.312;2023-04-06T07:49:22;2.57;;;1.60;;
5807;SDS011;2930;42.678;23.312;2023-04-06T07:51:48;2.57;;;2.47;;
5807;SDS011;2930;42.678;23.312;2023-04-06T07:54:14;1.53;;;1.33;;
5807;SDS011;2930;42.678;23.312;2023-04-06T07:56:40;2.37;;;2.17;;
5807;SDS011;2930;42.678;23.312;2023-04-06T07:59:05;5.87;;;2.20;;
5807;SDS011;2930;42.678;23.312;2023-04-06T08:01:31;1.63;;;1.37;;
5807;SDS011;2930;42.678;23.312;2023-04-06T08:03:57;2.33;;;2.13;;
5807;SDS011;2930;42.678;23.312;2023-04-06T08:06:23;1.90;;;1.80;;
5807;SDS011;2930;42.678;23.312;2023-04-06T08:08:48;3.47;;;1.77;;
5807;SDS011;2930;42.678;23.312;2023-04-06T08:11:14;3.60;;;2.20;;
5807;SDS011;2930;42.678;23.312;2023-04-06T08:13:41;2.10;;;1.90;;
5807;SDS011;2930;42.678;23.312;2023-04-06T08:16:06;1.90;;;1.80;;
5807;SDS011;2930;42.678;23.312;2023-04-06T08:18:32;2.57;;;2.37;;
5807;SDS011;2930;42.678;23.312;2023-04-06T08:20:58;3.33;;;2.83;;
5807;SDS011;2930;42.678;23.312;2023-04-06T08:23:23;1.97;;;1.87;;
5807;SDS011;2930;42.678;23.312;2023-04-06T08:25:49;2.20;;;2.10;;
5807;SDS011;2930;42.678;23.312;2023-04-06T08:28:15;3.37;;;2.27;;
5807;SDS011;2930;42.678;23.312;2023-04-06T08:30:41;2.30;;;2.20;;
5807;SDS011;2930;42.678;23.312;2023-04-06T08:33:07;2.03;;;1.93;;
5807;SDS011;2930;42.678;23.312;2023-04-06T08:35:33;2.90;;;2.30;;
5807;SDS011;2930;42.678;23.312;2023-04-06T08:37:59;2.80;;;2.10;;
5807;SDS011;2930;42.678;23.312;2023-04-06T08:40:25;2.30;;;2.10;;
5807;SDS011;2930;42.678;23.312;2023-04-06T08:42:52;2.40;;;2.20;;
5807;SDS011;2930;42.678;23.312;2023-04-06T08:45:20;2.43;;;2.27;;
5807;SDS011;2930;42.678;23.312;2023-04-06T08:47:48;3.23;;;2.80;;
5807;SDS011;2930;42.678;23.312;2023-04-06T08:50:15;2.30;;;2.20;;
5807;SDS011;2930;42.678;23.312;2023-04-06T08:52:43;2.07;;;1.97;;
5807;SDS011;2930;42.678;23.312;2023-04-06T08:55:11;3.07;;;2.30;;
5807;SDS011;2930;42.678;23.312;2023-04-06T08:57:36;2.10;;;2.00;;
5807;SDS011;2930;42.678;23.312;2023-04-06T09:00:03;1.37;;;1.37;;
5807;SDS011;2930;42.678;23.312;2023-04-06T09:02:30;3.17;;;2.47;;
5807;SDS011;2930;42.678;23.312;2023-04-06T09:04:57;3.23;;;2.70;;
5807;SDS011;2930;42.678;23.312;2023-04-06T09:07:22;2.73;;;2.53;;
5807;SDS011;2930;42.678;23.312;2023-04-06T09:09:49;2.53;;;2.43;;
5807;SDS011;2930;42.678;23.312;2023-04-06T09:12:29;2.97;;;2.67;;
5807;SDS011;2930;42.678;23.312;2023-04-06T09:14:56;2.83;;;2.63;;
5807;SDS011;2930;42.678;23.312;2023-04-06T09:17:23;2.43;;;2.23;;
5807;SDS011;2930;42.678;23.312;2023-04-06T09:19:57;2.20;;;2.17;;
5807;SDS011;2930;42.678;23.312;2023-04-06T09:22:24;2.47;;;2.37;;
5807;SDS011;2930;42.678;23.312;2023-04-06T09:24:52;2.40;;;1.90;;
5807;SDS011;2930;42.678;23.312;2023-04-06T09:27:31;3.50;;;3.20;;
5807;SDS011;2930;42.678;23.312;2023-04-06T09:32:31;9.97;;;2.97;;
5807;SDS011;2930;42.678;23.312;2023-04-06T09:35:09;3.33;;;3.10;;
5807;SDS011;2930;42.678;23.312;2023-04-06T09:37:35;2.40;;;2.27;;
5807;SDS011;2930;42.678;23.312;2023-04-06T09:40:04;2.80;;;2.63;;
5807;SDS011;2930;42.678;23.312;2023-04-06T09:42:32;2.83;;;2.73;;
5807;SDS011;2930;42.678;23.312;2023-04-06T09:44:59;3.30;;;3.00;;
5807;SDS011;2930;42.678;23.312;2023-04-06T09:47:24;3.33;;;3.13;;
5807;SDS011;2930;42.678;23.312;2023-04-06T09:49:53;2.80;;;2.60;;
5807;SDS011;2930;42.678;23.312;2023-04-06T09:52:24;2.87;;;2.67;;
5807;SDS011;2930;42.678;23.312;2023-04-06T09:55:13;4.90;;;3.47;;
5807;SDS011;2930;42.678;23.312;2023-04-06T09:58:03;5.93;;;2.93;;
5807;SDS011;2930;42.678;23.312;2023-04-06T10:00:47;3.17;;;2.97;;
5807;SDS011;2930;42.678;23.312;2023-04-06T10:08:15;2.57;;;2.37;;
5807;SDS011;2930;42.678;23.312;2023-04-06T10:10:43;2.47;;;2.33;;
5807;SDS011;2930;42.678;23.312;2023-04-06T10:13:10;2.60;;;2.50;;
5807;SDS011;2930;42.678;23.312;2023-04-06T10:15:36;4.27;;;2.93;;
5807;SDS011;2930;42.678;23.312;2023-04-06T10:18:03;2.40;;;2.30;;
5807;SDS011;2930;42.678;23.312;2023-04-06T10:20:38;2.47;;;2.37;;
5807;SDS011;2930;42.678;23.312;2023-04-06T10:23:27;2.33;;;2.13;;
5807;SDS011;2930;42.678;23.312;2023-04-06T10:26:01;3.03;;;2.83;;
5807;SDS011;2930;42.678;23.312;2023-04-06T10:28:31;2.47;;;2.27;;
5807;SDS011;2930;42.678;23.312;2023-04-06T10:31:00;2.40;;;2.30;;
5807;SDS011;2930;42.678;23.312;2023-04-06T10:33:26;2.97;;;2.43;;
5807;SDS011;2930;42.678;23.312;2023-04-06T10:35:53;4.67;;;2.87;;
5807;SDS011;2930;42.678;23.312;2023-04-06T10:38:20;4.00;;;2.90;;
5807;SDS011;2930;42.678;23.312;2023-04-06T10:40:47;2.37;;;2.17;;
5807;SDS011;2930;42.678;23.312;2023-04-06T10:45:56;3.17;;;2.83;;
5807;SDS011;2930;42.678;23.312;2023-04-06T10:48:24;2.40;;;2.20;;
5807;SDS011;2930;42.678;23.312;2023-04-06T10:51:00;2.60;;;2.43;;
5807;SDS011;2930;42.678;23.312;2023-04-06T10:53:27;2.23;;;2.13;;
5807;SDS011;2930;42.678;23.312;2023-04-06T10:55:56;3.57;;;2.87;;
5807;SDS011;2930;42.678;23.312;2023-04-06T10:58:26;3.60;;;2.20;;
5807;SDS011;2930;42.678;23.312;2023-04-06T11:00:52;2.00;;;1.90;;
5807;SDS011;2930;42.678;23.312;2023-04-06T11:03:19;2.83;;;2.63;;
5807;SDS011;2930;42.678;23.312;2023-04-06T11:05:45;3.63;;;2.83;;
5807;SDS011;2930;42.678;23.312;2023-04-06T11:08:31;2.57;;;2.40;;
5807;SDS011;2930;42.678;23.312;2023-04-06T11:11:04;2.70;;;2.50;;
5807;SDS011;2930;42.678;23.312;2023-04-06T11:13:40;2.33;;;2.23;;
5807;SDS011;2930;42.678;23.312;2023-04-06T11:16:20;2.37;;;2.27;;
5807;SDS011;2930;42.678;23.312;2023-04-06T11:18:53;2.17;;;2.08;;
5807;SDS011;2930;42.678;23.312;2023-04-06T11:21:37;2.65;;;2.47;;
5807;SDS011;2930;42.678;23.312;2023-04-06T11:24:11;2.60;;;2.50;;
5807;SDS011;2930;42.678;23.312;2023-04-06T11:26:41;2.85;;;2.72;;
5807;SDS011;2930;42.678;23.312;2023-04-06T11:29:10;2.55;;;2.42;;
5807;SDS011;2930;42.678;23.312;2023-04-06T11:31:44;3.50;;;3.20;;
5807;SDS011;2930;42.678;23.312;2023-04-06T11:34:21;2.97;;;2.78;;
5807;SDS011;2930;42.678;23.312;2023-04-06T11:36:48;2.78;;;2.63;;
5807;SDS011;2930;42.678;23.312;2023-04-06T11:39:19;3.10;;;2.90;;
5807;SDS011;2930;42.678;23.312;2023-04-06T11:41:49;2.95;;;2.80;;
5807;SDS011;2930;42.678;23.312;2023-04-06T11:44:26;2.97;;;2.78;;
5807;SDS011;2930;42.678;23.312;2023-04-06T11:47:14;3.47;;;3.17;;
5807;SDS011;2930;42.678;23.312;2023-04-06T11:49:41;3.42;;;3.13;;
5807;SDS011;2930;42.678;23.312;2023-04-06T11:52:14;3.15;;;2.85;;
5807;SDS011;2930;42.678;23.312;2023-04-06T11:54:41;2.88;;;2.65;;
5807;SDS011;2930;42.678;23.312;2023-04-06T11:57:07;2.70;;;2.50;;
5807;SDS011;2930;42.678;23.312;2023-04-06T11:59:34;2.73;;;2.43;;
5807;SDS011;2930;42.678;23.312;2023-04-06T12:02:01;2.87;;;2.67;;
5807;SDS011;2930;42.678;23.312;2023-04-06T12:04:27;2.67;;;2.57;;
5807;SDS011;2930;42.678;23.312;2023-04-06T12:06:53;2.60;;;2.50;;
5807;SDS011;2930;42.678;23.312;2023-04-06T12:09:19;3.30;;;3.00;;
5807;SDS011;2930;42.678;23.312;2023-04-06T12:11:45;2.53;;;2.43;;
5807;SDS011;2930;42.678;23.312;2023-04-06T12:14:11;2.67;;;2.57;;
5807;SDS011;2930;42.678;23.312;2023-04-06T12:16:37;2.60;;;2.50;;
5807;SDS011;2930;42.678;23.312;2023-04-06T12:19:03;2.43;;;2.30;;
5807;SDS011;2930;42.678;23.312;2023-04-06T12:21:33;3.37;;;2.87;;
5807;SDS011;2930;42.678;23.312;2023-04-06T12:24:02;2.93;;;2.70;;
5807;SDS011;2930;42.678;23.312;2023-04-06T12:26:29;3.60;;;3.30;;
5807;SDS011;2930;42.678;23.312;2023-04-06T12:28:55;2.50;;;2.37;;
5807;SDS011;2930;42.678;23.312;2023-04-06T12:31:21;2.97;;;2.70;;
5807;SDS011;2930;42.678;23.312;2023-04-06T12:33:50;2.60;;;2.03;;
5807;SDS011;2930;42.678;23.312;2023-04-06T12:36:18;2.23;;;2.13;;
5807;SDS011;2930;42.678;23.312;2023-04-06T12:38:47;2.47;;;2.27;;
5807;SDS011;2930;42.678;23.312;2023-04-06T12:41:13;2.63;;;2.53;;
5807;SDS011;2930;42.678;23.312;2023-04-06T12:43:40;3.70;;;2.57;;
5807;SDS011;2930;42.678;23.312;2023-04-06T12:46:06;2.60;;;2.40;;
5807;SDS011;2930;42.678;23.312;2023-04-06T12:48:32;2.93;;;2.27;;
5807;SDS011;2930;42.678;23.312;2023-04-06T12:50:59;2.80;;;2.70;;
5807;SDS011;2930;42.678;23.312;2023-04-06T12:53:28;2.97;;;2.60;;
5807;SDS011;2930;42.678;23.312;2023-04-06T12:55:54;3.53;;;2.53;;
5807;SDS011;2930;42.678;23.312;2023-04-06T12:58:21;2.40;;;2.30;;
5807;SDS011;2930;42.678;23.312;2023-04-06T13:00:48;2.97;;;2.83;;
5807;SDS011;2930;42.678;23.312;2023-04-06T13:03:15;2.70;;;2.53;;
5807;SDS011;2930;42.678;23.312;2023-04-06T13:05:46;2.37;;;2.27;;
5807;SDS011;2930;42.678;23.312;2023-04-06T13:08:13;2.77;;;2.57;;
5807;SDS011;2930;42.678;23.312;2023-04-06T13:10:49;2.97;;;2.77;;
5807;SDS011;2930;42.678;23.312;2023-04-06T13:13:16;2.80;;;2.60;;
5807;SDS011;2930;42.678;23.312;2023-04-06T13:15:42;4.63;;;2.57;;
5807;SDS011;2930;42.678;23.312;2023-04-06T13:18:08;3.07;;;2.53;;
5807;SDS011;2930;42.678;23.312;2023-04-06T13:20:34;2.33;;;2.23;;
5807;SDS011;2930;42.678;23.312;2023-04-06T13:23:00;2.43;;;2.33;;
5807;SDS011;2930;42.678;23.312;2023-04-06T13:25:26;3.43;;;2.80;;
5807;SDS011;2930;42.678;23.312;2023-04-06T13:27:53;2.57;;;2.47;;
5807;SDS011;2930;42.678;23.312;2023-04-06T13:30:19;2.47;;;2.37;;
5807;SDS011;2930;42.678;23.312;2023-04-06T13:32:45;2.87;;;2.67;;
5807;SDS011;2930;42.678;23.312;2023-04-06T13:35:11;4.77;;;3.00;;
5807;SDS011;2930;42.678;23.312;2023-04-06T13:37:36;3.23;;;2.93;;
5807;SDS011;2930;42.678;23.312;2023-04-06T13:40:03;3.70;;;2.60;;
5807;SDS011;2930;42.678;23.312;2023-04-06T13:42:29;3.17;;;2.53;;
5807;SDS011;2930;42.678;23.312;2023-04-06T13:44:55;2.30;;;2.20;;
5807;SDS011;2930;42.678;23.312;2023-04-06T13:47:21;2.83;;;2.60;;
5807;SDS011;2930;42.678;23.312;2023-04-06T13:49:49;2.10;;;1.93;;
5807;SDS011;2930;42.678;23.312;2023-04-06T13:52:16;3.33;;;2.83;;
5807;SDS011;2930;42.678;23.312;2023-04-06T13:54:41;2.73;;;2.33;;
5807;SDS011;2930;42.678;23.312;2023-04-06T13:57:07;2.63;;;2.43;;
5807;SDS011;2930;42.678;23.312;2023-04-06T13:59:36;2.70;;;2.50;;
5807;SDS011;2930;42.678;23.312;2023-04-06T14:02:03;2.60;;;2.40;;
5807;SDS011;2930;42.678;23.312;2023-04-06T14:04:29;2.43;;;2.27;;
5807;SDS011;2930;42.678;23.312;2023-04-06T14:06:55;2.37;;;2.27;;
5807;SDS011;2930;42.678;23.312;2023-04-06T14:09:21;2.17;;;2.07;;
5807;SDS011;2930;42.678;23.312;2023-04-06T14:11:47;2.63;;;2.43;;
5807;SDS011;2930;42.678;23.312;2023-04-06T14:14:13;2.33;;;2.17;;
5807;SDS011;2930;42.678;23.312;2023-04-06T14:16:39;2.80;;;2.67;;
5807;SDS011;2930;42.678;23.312;2023-04-06T14:19:06;2.60;;;2.40;;
5807;SDS011;2930;42.678;23.312;2023-04-06T14:21:32;2.47;;;2.27;;
5807;SDS011;2930;42.678;23.312;2023-04-06T14:23:57;2.17;;;2.07;;
5807;SDS011;2930;42.678;23.312;2023-04-06T14:26:23;2.00;;;1.90;;
5807;SDS011;2930;42.678;23.312;2023-04-06T14:28:49;2.43;;;2.33;;
5807;SDS011;2930;42.678;23.312;2023-04-06T14:31:15;2.33;;;2.23;;
5807;SDS011;2930;42.678;23.312;2023-04-06T14:33:41;2.33;;;2.23;;
5807;SDS011;2930;42.678;23.312;2023-04-06T14:36:07;3.03;;;2.83;;
5807;SDS011;2930;42.678;23.312;2023-04-06T14:38:34;2.80;;;2.33;;
5807;SDS011;2930;42.678;23.312;2023-04-06T14:40:59;2.80;;;2.63;;
5807;SDS011;2930;42.678;23.312;2023-04-06T14:43:25;4.07;;;2.53;;
5807;SDS011;2930;42.678;23.312;2023-04-06T14:45:51;2.73;;;2.43;;
5807;SDS011;2930;42.678;23.312;2023-04-06T14:48:17;2.40;;;2.30;;
5807;SDS011;2930;42.678;23.312;2023-04-06T14:50:56;2.53;;;2.40;;
5807;SDS011;2930;42.678;23.312;2023-04-06T14:53:22;2.83;;;2.47;;
5807;SDS011;2930;42.678;23.312;2023-04-06T14:55:48;3.20;;;2.90;;
5807;SDS011;2930;42.678;23.312;2023-04-06T14:58:17;2.87;;;2.50;;
5807;SDS011;2930;42.678;23.312;2023-04-06T15:00:44;3.17;;;2.97;;
5807;SDS011;2930;42.678;23.312;2023-04-06T15:03:09;4.37;;;2.80;;
5807;SDS011;2930;42.678;23.312;2023-04-06T15:05:35;2.90;;;2.70;;
5807;SDS011;2930;42.678;23.312;2023-04-06T15:08:01;5.27;;;2.60;;
5807;SDS011;2930;42.678;23.312;2023-04-06T15:10:27;2.73;;;2.57;;